Nearby METAR Reports

 

KRNT - Renton, Washington, USA
Distance from station: NNW 3mi, 4km
Updated: Sun, 26-Sep-2021 4:26pm PDT
Rain, Overcast
Rain, Overcast
 Wind from NNW
Wind: NNW 7 mph , 11 km/h
Temperature: 59°F , 15°C
Dew Point: 54°F , 12°C
Humidity: 82%
Barometer: 29.76 inHg , 1007.8 hPa
Summary: Rain
Clouds: Overcast
Visibility: 1 3/4 miles , 2.8 km
Cloud details: Mostly cloudy 6000 ft
Overcast 7000 ft
2021/09/26 23:26 KRNT 262326Z 34006KT 1 3/4SM RA BKN060 OVC070 15/12 A2976 RMK AO2 P0002 T01500122
KSEA - Seattle/Metro, Washington, USA
Distance from station: W 5mi, 9km
Updated: Sun, 26-Sep-2021 3:53pm PDT
NOT Current
Light rain, Mist, Overcast
Light rain, Mist, Overcast
 Wind from NW
Wind: NW 5 mph , 7 km/h
Temperature: 57°F , 14°C
Dew Point: 55°F , 13°C
Humidity: 94%
Barometer: 29.76 inHg , 1007.8 hPa
Summary: Light rain, Mist
Clouds: Overcast
Visibility: 4 miles , 6 km
Cloud details: Few Clouds 2000 ft
Mostly cloudy 5000 ft
Overcast 7000 ft
2021/09/26 22:53 KSEA 262253Z 32004KT 4SM -RA BR FEW020 BKN050 OVC070 14/13 A2976 RMK AO2 RAE12B44 SLP085 P0002 T01440128
KBFI - Seattle/Boeing, Washington, USA
Distance from station: NW 8mi, 13km
Updated: Sun, 26-Sep-2021 4:27pm PDT
Rain, Mist, Overcast
Rain, Mist, Overcast
 Wind from calm
Wind: Calm
Temperature: 57°F , 14°C
Dew Point: 55°F , 13°C
Humidity: 94%
Barometer: 29.75 inHg , 1007.5 hPa
Summary: Rain, Mist
Clouds: Overcast
Visibility: 2 miles , 3 km
Cloud details: Mostly cloudy 5000 ft
Overcast 7000 ft
2021/09/26 23:27 KBFI 262327Z 00000KT 2SM RA BR BKN050 OVC070 14/13 A2975 RMK AO2 P0005 T01440128
 
KTIW - Tacoma, Washington, USA
Distance from station: SW 22mi, 36km
Updated: Sun, 26-Sep-2021 4:09pm PDT
Rain, Mist, Overcast
Rain, Mist, Overcast
 Wind from N
Wind: N 6 mph , 9 km/h
Temperature: 55°F , 13°C
Dew Point: 55°F , 13°C
Humidity: 100%
Barometer: 29.76 inHg , 1007.8 hPa
Summary: Rain, Mist
Clouds: Overcast
Visibility: 2 miles , 3 km
Cloud details: Mostly cloudy 700 ft
Mostly cloudy 4300 ft
Overcast 5000 ft
2021/09/26 23:09 KTIW 262309Z 36005KT 2SM RA BR BKN007 BKN043 OVC050 13/13 A2976 RMK AO2 P0005 T01280128
KPLU - Puyallup/Thun, Washington, USA
Distance from station: S 25mi, 41km
Updated: Sun, 26-Sep-2021 4:35pm PDT
Overcast
Overcast
 Wind from varies
Wind: varies 5 mph , 7 km/h
Temperature: 63°F , 17°C
Dew Point: 55°F , 13°C
Humidity: 77%
Barometer: 29.75 inHg , 1007.5 hPa
Clouds: Overcast
Visibility: 10 miles , 16 km
Cloud details: Overcast 7000 ft
2021/09/26 23:35 KPLU 262335Z AUTO VRB04KT 10SM OVC070 17/13 A2975 RMK AO2
KPWT - Bremerton Ntnl, Washington, USA
Distance from station: W 26mi, 41km
Updated: Sun, 26-Sep-2021 3:56pm PDT
NOT Current
Rain, Mist, Overcast
Rain, Mist, Overcast
 Wind from WSW
Wind: WSW 5 mph , 7 km/h
Temperature: 55°F , 13°C
Dew Point: 54°F , 12°C
Humidity: 94%
Barometer: 29.77 inHg , 1008.1 hPa
Summary: Rain, Mist
Clouds: Overcast
Visibility: 4 miles , 6 km
Cloud details: Few Clouds 2300 ft
Overcast 3400 ft
2021/09/26 22:56 KPWT 262256Z AUTO 25004KT 4SM RA BR FEW023 OVC034 13/12 A2977 RMK AO2 SLP084 P0016 T01280122
 
KTCM - Tacoma/Mc Chord, Washington, USA
Distance from station: SSW 27mi, 43km
Updated: Sun, 26-Sep-2021 3:58pm PDT
NOT Current
Overcast
Overcast
 Wind from NW
Wind: NW 9 mph , 15 km/h
Temperature: 61°F , 16°C
Dew Point: 54°F , 12°C
Humidity: 77%
Barometer: 29.75 inHg , 1007.5 hPa
Clouds: Overcast
Visibility: 10 miles , 16 km
Cloud details: Mostly cloudy 5000 ft
Overcast 7000 ft
2021/09/26 22:58 KTCM 262258Z AUTO 32008KT 10SM BKN050 OVC070 16/12 A2975 RMK AO2 SLP078 T01560122 $
KPAE - Everett, Washington, USA
Distance from station: N 32mi, 51km
Updated: Sun, 26-Sep-2021 3:53pm PDT
NOT Current
Light rain, Mist, Mostly cloudy
Light rain, Mist, Mostly cloudy
 Wind from SSE
Wind: SSE 7 mph , 11 km/h
Temperature: 55°F , 13°C
Dew Point: 54°F , 12°C
Humidity: 94%
Barometer: 29.78 inHg , 1008.5 hPa
Summary: Light rain, Mist
Clouds: Mostly cloudy
Visibility: 5 miles , 8 km
Cloud details: Partly cloudy 900 ft
Mostly cloudy 2300 ft
2021/09/26 22:53 KPAE 262253Z 15006KT 5SM -RA BR SCT009 BKN023 13/12 A2978 RMK AO2 SLP083 P0008 T01330122
KGRF - Fort Lewis/Gray, Washington, USA
Distance from station: SSW 32mi, 52km
Updated: Sun, 26-Sep-2021 4:25pm PDT
Light rain, Overcast
Light rain, Overcast
 Wind from WNW
Wind: WNW 6 mph , 9 km/h
Temperature: 59°F , 15°C
Dew Point: 54°F , 12°C
Humidity: 82%
Barometer: 29.74 inHg , 1007.1 hPa
Summary: Light rain
Clouds: Overcast
Visibility: 10 miles , 16 km
Cloud details: Overcast 6500 ft
2021/09/26 23:25 KGRF 262325Z AUTO 29005KT 10SM -RA OVC065 15/12 A2974 RMK AO2 RAB25 SLP075 $
 
KSMP - Stampede Pass, Washington, USA
Distance from station: ESE 42mi, 68km
Updated: Sun, 26-Sep-2021 3:56pm PDT
NOT Current
Overcast
Overcast
 Wind from calm
Wind: Calm
Temperature: 59°F , 15°C
Dew Point: 48°F , 9°C
Humidity: 68%
Barometer: 29.83 inHg , 1010.2 hPa
Clouds: Overcast
Visibility: 10 miles , 16 km
Cloud details: Partly cloudy 8500 ft
Overcast 11000 ft
2021/09/26 22:56 KSMP 262256Z AUTO 00000KT 10SM SCT085 OVC110 15/09 A2983 RMK AO2 SLP088 T01500094
KSHN - Shelton, Washington, USA
Distance from station: WSW 46mi, 75km
Updated: Sun, 26-Sep-2021 4:35pm PDT
Light rain, Mist, Overcast
Light rain, Mist, Overcast
 Wind from NNE
Wind: NNE 5 mph , 7 km/h
Temperature: 55°F , 13°C
Dew Point: 55°F , 13°C
Humidity: 100%
Barometer: 29.72 inHg , 1006.4 hPa
Summary: Light rain, Mist
Clouds: Overcast
Visibility: 3 miles , 5 km
Cloud details: Few Clouds 500 ft
Mostly cloudy 3900 ft
Overcast 6000 ft
2021/09/26 23:35 KSHN 262335Z AUTO 02004KT 3SM -RA BR FEW005 BKN039 OVC060 13/13 A2972 RMK AO2 P0020 T01330128
KOLM - Olympia, Washington, USA
Distance from station: SW 47mi, 76km
Updated: Sun, 26-Sep-2021 3:54pm PDT
NOT Current
Overcast
Overcast
 Wind from N
Wind: N 6 mph , 9 km/h
Temperature: 59°F , 15°C
Dew Point: 55°F , 13°C
Humidity: 88%
Barometer: 29.76 inHg , 1007.8 hPa
Clouds: Overcast
Visibility: 10 miles , 16 km
Cloud details: Mostly cloudy 4900 ft
Overcast 7000 ft
2021/09/26 22:54 KOLM 262254Z 35005KT 10SM BKN049 OVC070 15/13 A2976 RMK AO2 RAB02E41 SLP078 P0000 T01500133
 
KAWO - Arlington Muni, Washington, USA
Distance from station: N 49mi, 78km
Updated: Sun, 26-Sep-2021 3:56pm PDT
NOT Current
Light rain, Mist, Overcast
Light rain, Mist, Overcast
 Wind from E
Wind: E 5 mph , 7 km/h
Temperature: 57°F , 14°C
Dew Point: 55°F , 13°C
Humidity: 94%
Barometer: 29.78 inHg , 1008.5 hPa
Summary: Light rain, Mist
Clouds: Overcast
Visibility: 4 miles , 6 km
Cloud details: Mostly cloudy 3200 ft
Overcast 4800 ft
2021/09/26 22:56 KAWO 262256Z AUTO 08004KT 4SM -RA BR BKN032 OVC048 14/13 A2978 RMK AO2 SLP086 T01390128 PNO $
K0S9 - Port Townsend, Washington, USA
Distance from station: NW 50mi, 80km
Updated: Sun, 26-Sep-2021 5:16pm PDT
unable to load K0S9 data RC=404
unable to load K0S9 data RC=404